Time;durP1;ratioP1;P1;durP2;ratioP2;P2;SDS_P1;SDS_P2;PMS_P1;PMS_P2;Temp;Humidity;BMP_temperature;BMP_pressure;BME280_temperature;BME280_humidity;BME280_pressure;Samples;Min_cycle;Max_cycle;Signal;HPM_P1;HPM_P2
2021/01/09 00:02:07;;;;;;;50.35;26.52;;;1.30;99.90;;;;;;5074533;28;20427;-72
2021/01/09 00:04:33;;;;;;;54.10;25.27;;;1.30;99.90;;;;;;5076166;28;20154;-72
2021/01/09 00:06:58;;;;;;;50.05;25.80;;;1.30;99.90;;;;;;5076082;28;20028;-72
2021/01/09 00:09:24;;;;;;;52.45;26.00;;;1.30;99.90;;;;;;5075841;28;20107;-72
2021/01/09 00:11:50;;;;;;;52.90;26.02;;;1.30;99.90;;;;;;5074182;28;20213;-72
2021/01/09 00:14:16;;;;;;;55.20;27.38;;;1.30;99.90;;;;;;5075972;28;20036;-72
2021/01/09 00:16:49;;;;;;;52.17;26.08;;;1.20;99.90;;;;;;5075627;28;20081;-72
2021/01/09 00:19:15;;;;;;;49.38;23.58;;;1.30;99.90;;;;;;5075897;28;20445;-72
2021/01/09 00:21:40;;;;;;;51.28;25.52;;;1.30;99.90;;;;;;5075266;28;20064;-72
2021/01/09 00:24:08;;;;;;;51.97;25.45;;;1.30;99.90;;;;;;5075806;28;20028;-72
2021/01/09 00:26:34;;;;;;;51.15;25.25;;;1.30;99.90;;;;;;5075224;28;20029;-72
2021/01/09 00:29:00;;;;;;;52.30;25.95;;;1.30;99.90;;;;;;5075609;28;20116;-72
2021/01/09 00:31:26;;;;;;;50.78;24.27;;;1.40;99.90;;;;;;5075511;28;20052;-72
2021/01/09 00:33:51;;;;;;;49.20;23.75;;;1.30;99.90;;;;;;5073713;28;20487;-72
2021/01/09 00:36:17;;;;;;;48.45;24.10;;;1.40;99.90;;;;;;5075521;28;20055;-72
2021/01/09 00:38:43;;;;;;;50.47;24.98;;;1.40;99.90;;;;;;5075515;28;20074;-72
2021/01/09 00:41:08;;;;;;;51.13;25.00;;;1.30;99.90;;;;;;5075416;28;20024;-72
2021/01/09 00:43:34;;;;;;;49.13;25.38;;;1.30;99.90;;;;;;5075377;28;20039;-72
2021/01/09 00:46:00;;;;;;;47.33;23.48;;;1.30;99.90;;;;;;5075359;28;20500;-72
2021/01/09 00:48:25;;;;;;;48.70;25.38;;;1.40;99.90;;;;;;5075294;28;20073;-72
2021/01/09 00:50:51;;;;;;;46.15;23.48;;;1.30;99.90;;;;;;5074948;28;20077;-72
2021/01/09 00:53:16;;;;;;;48.20;22.77;;;1.30;99.90;;;;;;5075115;28;20024;-72
2021/01/09 00:55:42;;;;;;;48.47;23.77;;;1.30;99.90;;;;;;5074534;28;20021;-72
2021/01/09 00:58:07;;;;;;;47.25;24.48;;;1.40;99.90;;;;;;5074839;28;20024;-72
2021/01/09 01:00:32;;;;;;;53.15;23.90;;;1.40;99.90;;;;;;5075077;28;20492;-72
2021/01/09 01:02:58;;;;;;;53.60;26.20;;;1.40;99.90;;;;;;5075007;28;20033;-72
2021/01/09 01:05:24;;;;;;;50.92;24.65;;;1.30;99.90;;;;;;5074972;28;20028;-72
2021/01/09 01:07:49;;;;;;;54.80;26.20;;;1.30;99.90;;;;;;5073071;28;20027;-72
2021/01/09 01:10:15;;;;;;;53.22;25.77;;;1.30;99.90;;;;;;5074574;28;20064;-72
2021/01/09 01:12:41;;;;;;;55.20;25.88;;;1.30;99.90;;;;;;5074172;28;20508;-72
2021/01/09 01:15:07;;;;;;;51.00;24.55;;;1.40;99.90;;;;;;5074776;28;20035;-72
2021/01/09 01:17:33;;;;;;;52.72;25.95;;;1.30;99.90;;;;;;5074737;28;20023;-72
2021/01/09 01:19:58;;;;;;;48.53;24.67;;;1.40;99.90;;;;;;5073296;28;20029;-72
2021/01/09 01:22:24;;;;;;;51.97;25.05;;;1.30;99.90;;;;;;5056224;28;20083;-72
2021/01/09 01:24:50;;;;;;;53.33;24.75;;;1.40;99.90;;;;;;5074316;28;20330;-72
2021/01/09 01:27:15;;;;;;;56.97;26.42;;;1.40;99.90;;;;;;5072765;28;20031;-72
2021/01/09 01:29:40;;;;;;;56.38;26.00;;;1.30;99.90;;;;;;5074588;28;20346;-72
2021/01/09 01:32:06;;;;;;;51.22;24.80;;;1.30;99.90;;;;;;5074546;28;20032;-72
2021/01/09 01:34:32;;;;;;;47.47;24.15;;;1.30;99.90;;;;;;5056064;28;20025;-72
2021/01/09 01:36:57;;;;;;;53.45;26.17;;;1.40;99.90;;;;;;5074011;28;20035;-72
2021/01/09 01:39:23;;;;;;;59.38;26.60;;;1.40;99.90;;;;;;5072661;28;20021;-72
2021/01/09 01:41:48;;;;;;;54.38;25.30;;;1.40;99.90;;;;;;5073980;28;20035;-72
2021/01/09 01:44:14;;;;;;;57.42;26.25;;;1.30;99.90;;;;;;5074319;28;20033;-72
2021/01/09 01:46:40;;;;;;;56.65;26.58;;;1.30;99.90;;;;;;5073730;28;20028;-72
2021/01/09 01:49:06;;;;;;;59.00;25.05;;;1.30;99.90;;;;;;5074268;28;20040;-72
2021/01/09 01:51:32;;;;;;;51.50;24.95;;;1.40;99.90;;;;;;5074194;28;20029;-72
2021/01/09 01:53:57;;;;;;;51.95;24.23;;;1.30;99.90;;;;;;5074215;28;20027;-72
2021/01/09 01:56:23;;;;;;;54.75;25.15;;;1.40;99.90;;;;;;5073876;28;20097;-72
2021/01/09 01:58:49;;;;;;;58.40;25.85;;;1.40;99.90;;;;;;5074163;28;20032;-72
2021/01/09 02:01:16;;;;;;;55.78;25.55;;;1.30;99.90;;;;;;5074087;28;20039;-72
2021/01/09 02:03:41;;;;;;;54.05;24.83;;;1.40;99.90;;;;;;5073804;28;20013;-72
2021/01/09 02:06:12;;;;;;;57.72;25.73;;;1.40;99.90;;;;;;5074020;28;20029;-72
2021/01/09 02:08:53;;;;;;;52.17;23.52;;;1.30;99.90;;;;;;5072520;28;20424;-72
2021/01/09 02:11:36;;;;;;;52.63;23.88;;;1.40;99.90;;;;;;5073754;28;20397;-72
2021/01/09 02:14:04;;;;;;;53.95;23.52;;;1.40;99.90;;;;;;5073650;28;20012;-72
2021/01/09 02:16:31;;;;;;;52.08;24.15;;;1.40;99.90;;;;;;5073636;28;20099;-72
2021/01/09 02:18:59;;;;;;;48.35;23.50;;;1.40;99.90;;;;;;5073899;28;20020;-72
2021/01/09 02:21:37;;;;;;;56.72;24.25;;;1.40;99.90;;;;;;5073337;28;20382;-72
2021/01/09 02:24:11;;;;;;;49.30;22.80;;;1.40;99.90;;;;;;5073550;28;20497;-72
2021/01/09 02:26:37;;;;;;;52.28;24.27;;;1.40;99.90;;;;;;5073848;28;20044;-72
2021/01/09 02:29:02;;;;;;;54.38;24.48;;;1.30;99.90;;;;;;5073837;28;20059;-72
2021/01/09 02:31:29;;;;;;;57.20;23.40;;;1.40;99.90;;;;;;5072298;28;20028;-72
2021/01/09 02:33:55;;;;;;;55.38;23.60;;;1.40;99.90;;;;;;5073248;28;20108;-72
2021/01/09 02:36:21;;;;;;;51.42;22.73;;;1.40;99.90;;;;;;5073769;28;20096;-72
2021/01/09 02:38:47;;;;;;;47.40;23.60;;;1.40;99.90;;;;;;5073455;28;20051;-72
2021/01/09 02:41:13;;;;;;;58.30;25.95;;;1.40;99.90;;;;;;5073662;28;20454;-72
2021/01/09 02:43:39;;;;;;;57.70;23.80;;;1.30;99.90;;;;;;5073668;28;20485;-72
2021/01/09 02:46:04;;;;;;;51.75;23.92;;;1.40;99.90;;;;;;5073706;28;20032;-72
2021/01/09 02:48:30;;;;;;;53.50;24.33;;;1.40;99.90;;;;;;5073634;28;20032;-72
2021/01/09 02:50:55;;;;;;;57.00;24.02;;;1.40;99.90;;;;;;5073662;28;20025;-72
2021/01/09 02:53:21;;;;;;;55.45;24.45;;;1.30;99.90;;;;;;5073009;28;20036;-72
2021/01/09 02:55:46;;;;;;;54.13;25.40;;;1.30;99.90;;;;;;5077152;28;20032;-72
2021/01/09 02:58:12;;;;;;;48.75;22.60;;;1.30;99.90;;;;;;5077374;28;20393;-72
2021/01/09 03:00:37;;;;;;;56.55;24.92;;;1.40;99.90;;;;;;5077369;28;20036;-72
2021/01/09 03:03:03;;;;;;;55.17;24.25;;;1.40;99.90;;;;;;5077338;28;20020;-72
2021/01/09 03:05:28;;;;;;;53.08;24.02;;;1.40;99.90;;;;;;5077263;28;20047;-72
2021/01/09 03:07:54;;;;;;;51.50;23.60;;;1.40;99.90;;;;;;5077192;28;20028;-72
2021/01/09 03:10:20;;;;;;;54.72;24.05;;;1.40;99.90;;;;;;5076196;28;20115;-72
2021/01/09 03:12:45;;;;;;;60.85;25.45;;;1.40;99.90;;;;;;5076383;28;20076;-72
2021/01/09 03:15:11;;;;;;;59.00;25.52;;;1.30;99.90;;;;;;5077104;28;20095;-72
2021/01/09 03:17:37;;;;;;;57.55;25.85;;;1.40;99.90;;;;;;5077025;28;20024;-72
2021/01/09 03:20:03;;;;;;;61.40;25.38;;;1.40;99.90;;;;;;5076400;28;20024;-72
2021/01/09 03:22:28;;;;;;;54.80;24.25;;;1.40;99.90;;;;;;5076954;28;20044;-72
2021/01/09 03:24:54;;;;;;;61.90;25.98;;;1.40;99.90;;;;;;5076918;28;20037;-72
2021/01/09 03:27:19;;;;;;;52.30;24.85;;;1.50;99.90;;;;;;5076576;28;20077;-72
2021/01/09 03:29:45;;;;;;;57.17;24.85;;;1.50;99.90;;;;;;5075537;28;20025;-72
2021/01/09 03:32:10;;;;;;;52.03;23.00;;;1.40;99.90;;;;;;5076398;28;20025;-72
2021/01/09 03:34:36;;;;;;;63.67;25.50;;;1.50;99.90;;;;;;5076155;28;20017;-72
2021/01/09 03:37:01;;;;;;;57.50;25.50;;;1.40;99.90;;;;;;5076690;28;20024;-72
2021/01/09 03:39:27;;;;;;;58.08;26.55;;;1.40;99.90;;;;;;5075620;28;20025;-72
2021/01/09 03:41:52;;;;;;;60.25;24.38;;;1.40;99.90;;;;;;5076610;28;20034;-72
2021/01/09 03:44:18;;;;;;;50.67;23.98;;;1.40;99.90;;;;;;5076300;28;20032;-72
2021/01/09 03:46:44;;;;;;;58.40;25.58;;;1.40;99.90;;;;;;5074776;28;20492;-72
2021/01/09 03:49:09;;;;;;;64.47;27.58;;;1.40;99.90;;;;;;5076420;28;20111;-72
2021/01/09 03:51:35;;;;;;;60.53;25.67;;;1.40;99.90;;;;;;5076332;28;20030;-72
2021/01/09 03:54:00;;;;;;;58.33;25.70;;;1.40;99.90;;;;;;5076362;28;20103;-72
2021/01/09 03:56:26;;;;;;;63.08;26.13;;;1.40;99.90;;;;;;5076107;28;20021;-72
2021/01/09 03:58:51;;;;;;;61.10;24.77;;;1.30;99.90;;;;;;5076267;28;20031;-72
2021/01/09 04:01:17;;;;;;;65.53;26.60;;;1.40;99.90;;;;;;5076002;28;20443;-72
2021/01/09 04:03:42;;;;;;;57.95;25.52;;;1.40;99.90;;;;;;5076226;28;20461;-72
2021/01/09 04:06:08;;;;;;;60.38;25.50;;;1.40;99.90;;;;;;5075567;28;20031;-72
2021/01/09 04:08:34;;;;;;;66.88;27.92;;;1.30;99.90;;;;;;5074549;28;20025;-72
2021/01/09 04:10:59;;;;;;;66.43;26.75;;;1.30;99.90;;;;;;5075566;28;20471;-72
2021/01/09 04:13:25;;;;;;;60.70;27.33;;;1.30;99.90;;;;;;5075652;28;20428;-72
2021/01/09 04:15:50;;;;;;;59.28;25.95;;;1.30;99.90;;;;;;5075668;28;20024;-72
2021/01/09 04:18:16;;;;;;;61.83;26.70;;;1.30;99.90;;;;;;5075898;28;20024;-72
2021/01/09 04:20:41;;;;;;;62.08;27.88;;;1.30;99.90;;;;;;5075849;28;20109;-72
2021/01/09 04:23:07;;;;;;;62.33;27.02;;;1.30;99.90;;;;;;5075852;28;20032;-72
2021/01/09 04:25:34;;;;;;;62.95;26.20;;;1.30;99.90;;;;;;5074657;28;20377;-72
2021/01/09 04:28:00;;;;;;;63.70;26.17;;;1.20;99.90;;;;;;5075756;28;20082;-72
2021/01/09 04:30:25;;;;;;;63.67;27.85;;;1.20;99.90;;;;;;5075431;28;20474;-72
2021/01/09 04:32:51;;;;;;;68.05;29.00;;;1.20;99.90;;;;;;5075484;28;20031;-72
2021/01/09 04:35:16;;;;;;;66.78;27.83;;;1.20;99.90;;;;;;5075609;28;20081;-72
2021/01/09 04:37:42;;;;;;;70.45;31.10;;;1.20;99.90;;;;;;5075206;28;20050;-72
2021/01/09 04:40:08;;;;;;;68.82;30.05;;;1.20;99.90;;;;;;5075234;28;20024;-72
2021/01/09 04:42:35;;;;;;;75.65;31.10;;;1.20;99.90;;;;;;5074279;28;20354;-72
2021/01/09 04:45:01;;;;;;;76.55;28.90;;;1.20;99.90;;;;;;5073954;28;20032;-72
2021/01/09 04:47:29;;;;;;;73.13;29.30;;;1.20;99.90;;;;;;5075368;28;20028;-72
2021/01/09 04:49:55;;;;;;;64.35;29.23;;;1.20;99.90;;;;;;5075316;28;20128;-72
2021/01/09 04:52:21;;;;;;;78.80;29.98;;;1.20;99.90;;;;;;5075117;28;20509;-72
2021/01/09 04:54:47;;;;;;;71.00;29.23;;;1.20;99.90;;;;;;5074623;28;20017;-72
2021/01/09 04:57:13;;;;;;;71.00;28.90;;;1.20;99.90;;;;;;5075147;28;20468;-72
2021/01/09 04:59:39;;;;;;;66.82;28.60;;;1.20;99.90;;;;;;5073945;28;20025;-72
2021/01/09 05:02:05;;;;;;;74.15;29.92;;;1.20;99.90;;;;;;5075033;28;20085;-72
2021/01/09 05:04:30;;;;;;;71.70;30.83;;;1.20;99.90;;;;;;5073165;28;20037;-72
2021/01/09 05:06:56;;;;;;;70.20;29.42;;;1.20;99.90;;;;;;5074919;28;20032;-72
2021/01/09 05:09:22;;;;;;;60.67;26.58;;;1.30;99.90;;;;;;5074875;28;20024;-72
2021/01/09 05:11:47;;;;;;;61.97;27.92;;;1.30;99.90;;;;;;5073211;28;20673;-72
2021/01/09 05:14:13;;;;;;;75.65;29.52;;;1.30;99.90;;;;;;5074552;28;20374;-72
2021/01/09 05:16:39;;;;;;;72.88;29.30;;;1.20;99.90;;;;;;5074064;28;20055;-72
2021/01/09 05:19:06;;;;;;;66.95;28.48;;;1.20;99.90;;;;;;5074441;28;20347;-72
2021/01/09 05:21:34;;;;;;;69.55;28.40;;;1.20;99.90;;;;;;5074421;28;20024;-72
2021/01/09 05:24:03;;;;;;;68.60;28.73;;;1.20;99.90;;;;;;5073164;28;20016;-72
2021/01/09 05:26:30;;;;;;;70.50;29.02;;;1.20;99.90;;;;;;5074306;28;20381;-72
2021/01/09 05:28:59;;;;;;;67.70;29.98;;;1.20;99.90;;;;;;5074524;28;20027;-72
2021/01/09 05:31:27;;;;;;;69.53;27.38;;;1.20;99.90;;;;;;5074460;28;20335;-72
2021/01/09 05:33:53;;;;;;;63.80;26.00;;;1.20;99.90;;;;;;5074465;28;20397;-72
2021/01/09 05:36:21;;;;;;;68.85;27.90;;;1.20;99.90;;;;;;5074445;28;20017;-72
2021/01/09 05:38:47;;;;;;;70.30;27.02;;;1.20;99.90;;;;;;5074115;28;20576;-72
2021/01/09 05:41:15;;;;;;;66.15;25.98;;;1.20;99.90;;;;;;5072548;28;20389;-72
2021/01/09 05:43:45;;;;;;;66.22;27.85;;;1.20;99.90;;;;;;5074272;28;20465;-72
2021/01/09 05:46:12;;;;;;;67.25;28.00;;;1.10;99.90;;;;;;5073984;28;20051;-72
2021/01/09 05:48:40;;;;;;;72.03;28.50;;;1.10;99.90;;;;;;5073980;28;20036;-72
2021/01/09 05:51:06;;;;;;;66.03;26.77;;;1.00;99.90;;;;;;5073942;28;20103;-72
2021/01/09 05:53:42;;;;;;;72.63;28.63;;;1.00;99.90;;;;;;5073879;28;20457;-72
2021/01/09 05:56:09;;;;;;;65.07;28.15;;;0.90;99.90;;;;;;5074164;28;20024;-72
2021/01/09 05:58:35;;;;;;;66.47;26.67;;;0.90;99.90;;;;;;5074161;28;20016;-72
2021/01/09 06:01:05;;;;;;;66.47;28.58;;;0.90;99.90;;;;;;5073820;28;20024;-72
2021/01/09 06:03:38;;;;;;;63.50;25.80;;;0.90;99.90;;;;;;5073857;28;20386;-72
2021/01/09 06:06:15;;;;;;;66.18;28.13;;;0.90;99.90;;;;;;5073789;28;20024;-72
2021/01/09 06:08:48;;;;;;;70.90;29.17;;;0.80;99.90;;;;;;5073987;28;20017;-72
2021/01/09 06:11:18;;;;;;;77.38;29.42;;;0.80;99.90;;;;;;5073648;28;20044;-72
2021/01/09 06:13:47;;;;;;;76.32;29.45;;;0.90;99.90;;;;;;5073898;28;20071;-72
2021/01/09 06:16:14;;;;;;;80.68;31.70;;;0.90;99.90;;;;;;5073382;28;20029;-72
2021/01/09 06:18:39;;;;;;;83.97;30.50;;;0.90;99.90;;;;;;5074228;28;20020;-72
2021/01/09 06:21:08;;;;;;;75.95;30.60;;;0.90;99.90;;;;;;5073906;28;20029;-72
2021/01/09 06:23:34;;;;;;;72.95;31.60;;;0.80;99.90;;;;;;5073594;28;20440;-72
2021/01/09 06:26:01;;;;;;;73.47;29.67;;;0.80;99.90;;;;;;5073556;28;20049;-72
2021/01/09 06:28:35;;;;;;;70.40;30.02;;;0.80;99.90;;;;;;5075090;28;20062;-72
2021/01/09 06:31:01;;;;;;;85.03;30.58;;;0.80;99.90;;;;;;5077935;28;20453;-72
2021/01/09 06:33:31;;;;;;;82.63;31.83;;;0.80;99.90;;;;;;5077837;28;20029;-72
2021/01/09 06:35:59;;;;;;;76.60;30.65;;;0.80;99.90;;;;;;5077876;28;20024;-72
2021/01/09 06:38:26;;;;;;;82.22;31.85;;;0.80;99.90;;;;;;5077809;28;20020;-72
2021/01/09 06:40:53;;;;;;;80.00;31.13;;;0.80;99.90;;;;;;5077761;28;20016;-72
2021/01/09 06:43:20;;;;;;;70.13;29.17;;;0.70;99.90;;;;;;5077748;28;20025;-72
2021/01/09 06:45:48;;;;;;;78.03;29.67;;;0.80;99.90;;;;;;5077683;28;20021;-72
2021/01/09 06:48:15;;;;;;;63.58;27.42;;;0.80;99.90;;;;;;5077098;28;20032;-71
2021/01/09 06:50:41;;;;;;;75.45;29.85;;;0.70;99.90;;;;;;5077573;28;20032;-72
2021/01/09 06:53:13;;;;;;;79.38;31.73;;;0.70;99.90;;;;;;5076275;28;20106;-72
2021/01/09 06:55:44;;;;;;;93.70;30.02;;;0.70;99.90;;;;;;5075656;28;20024;-72
2021/01/09 06:58:13;;;;;;;107.32;32.70;;;0.70;99.90;;;;;;5077388;28;20355;-72
2021/01/09 07:00:39;;;;;;;136.93;34.67;;;0.70;99.90;;;;;;5077379;28;20071;-72
2021/01/09 07:03:13;;;;;;;168.25;36.53;;;0.70;99.90;;;;;;5077072;28;20425;-72
2021/01/09 07:05:45;;;;;;;282.10;40.75;;;0.70;99.90;;;;;;5077286;28;20021;-72
2021/01/09 07:08:18;;;;;;;195.70;38.55;;;0.70;99.90;;;;;;5076965;28;20493;-72
2021/01/09 07:10:48;;;;;;;186.45;36.85;;;0.70;99.90;;;;;;5077032;28;20553;-72
2021/01/09 07:13:15;;;;;;;150.60;33.92;;;0.60;99.90;;;;;;5077102;28;20074;-72
2021/01/09 07:15:40;;;;;;;215.68;39.22;;;0.60;99.90;;;;;;5075937;28;20047;-72
2021/01/09 07:18:07;;;;;;;298.58;43.47;;;0.70;99.90;;;;;;5076470;28;20016;-72
2021/01/09 07:20:36;;;;;;;387.13;49.05;;;0.70;99.90;;;;;;5077000;28;20016;-72
2021/01/09 07:23:06;;;;;;;329.35;47.17;;;0.70;99.90;;;;;;5076680;28;20020;-71
2021/01/09 07:25:39;;;;;;;242.52;43.03;;;0.70;99.90;;;;;;5076636;28;20029;-71
2021/01/09 07:28:10;;;;;;;292.38;47.90;;;0.70;99.90;;;;;;5076367;28;20033;-72
2021/01/09 07:30:36;;;;;;;270.80;48.05;;;0.70;99.90;;;;;;5076793;28;20031;-72
2021/01/09 07:33:07;;;;;;;321.55;48.90;;;0.70;99.90;;;;;;5075298;28;20025;-72
2021/01/09 07:35:32;;;;;;;297.73;46.60;;;0.70;99.90;;;;;;5076184;28;20021;-72
2021/01/09 07:38:00;;;;;;;218.88;42.30;;;0.70;99.90;;;;;;5076727;28;20481;-71
2021/01/09 07:40:31;;;;;;;135.90;37.60;;;0.70;99.90;;;;;;5075945;28;20019;-72
2021/01/09 07:42:56;;;;;;;184.27;40.20;;;0.70;99.90;;;;;;5074843;28;20025;-72
2021/01/09 07:45:29;;;;;;;222.65;43.78;;;0.70;99.90;;;;;;5076293;28;20078;-71
2021/01/09 07:47:56;;;;;;;175.05;41.55;;;0.70;99.90;;;;;;5075955;28;20056;-71
2021/01/09 07:50:21;;;;;;;228.40;45.35;;;0.70;99.90;;;;;;5076481;28;20524;-71
2021/01/09 07:52:47;;;;;;;181.00;41.33;;;0.70;99.90;;;;;;5076339;28;20112;-71
2021/01/09 07:55:17;;;;;;;197.32;43.97;;;0.70;99.90;;;;;;5074944;28;20047;-71
2021/01/09 07:57:44;;;;;;;229.68;47.53;;;0.70;99.90;;;;;;5076076;28;20104;-71
2021/01/09 08:00:13;;;;;;;250.93;49.15;;;0.70;99.90;;;;;;5076262;28;20032;-71
2021/01/09 08:02:41;;;;;;;160.35;45.30;;;0.80;99.90;;;;;;5076233;28;20111;-72
2021/01/09 08:05:22;;;;;;;162.30;43.80;;;0.80;99.90;;;;;;5076216;28;20070;-72
2021/01/09 08:07:53;;;;;;;195.45;44.97;;;0.70;99.90;;;;;;5076182;28;20047;-72
2021/01/09 08:10:24;;;;;;;161.50;43.42;;;0.80;99.90;;;;;;5076120;28;20020;-72
2021/01/09 08:12:54;;;;;;;138.55;41.67;;;0.90;99.90;;;;;;5075315;28;20124;-72
2021/01/09 08:15:20;;;;;;;129.85;40.50;;;0.80;99.90;;;;;;5075721;28;20017;-72
2021/01/09 08:17:46;;;;;;;123.47;37.92;;;0.90;99.90;;;;;;5075942;28;20035;-71
2021/01/09 08:20:13;;;;;;;107.03;36.92;;;0.90;99.90;;;;;;5075620;28;20214;-72
2021/01/09 08:22:49;;;;;;;121.65;38.83;;;0.90;99.90;;;;;;5075606;28;20385;-71
2021/01/09 08:25:15;;;;;;;117.80;37.60;;;0.90;99.90;;;;;;5075879;28;20020;-72
2021/01/09 08:27:45;;;;;;;113.43;35.95;;;1.00;99.90;;;;;;5057337;28;20472;-72
2021/01/09 08:30:13;;;;;;;101.53;34.20;;;1.00;99.90;;;;;;5075719;28;20105;-72
2021/01/09 08:32:40;;;;;;;136.85;40.58;;;1.00;99.90;;;;;;5075553;28;20021;-72
2021/01/09 08:35:07;;;;;;;107.72;38.90;;;1.00;99.90;;;;;;5075661;28;20368;-72
2021/01/09 08:37:33;;;;;;;120.35;40.80;;;1.10;99.90;;;;;;5075568;28;20021;-72
2021/01/09 08:40:09;;;;;;;120.10;41.85;;;1.10;99.90;;;;;;5075559;28;20483;-72
2021/01/09 08:42:35;;;;;;;118.03;42.25;;;1.10;99.90;;;;;;5075198;28;20025;-72
2021/01/09 08:45:00;;;;;;;129.13;45.33;;;1.20;99.90;;;;;;5075416;28;20047;-72
2021/01/09 08:47:27;;;;;;;133.05;43.92;;;1.30;99.90;;;;;;5075379;28;20028;-72
2021/01/09 08:49:56;;;;;;;109.57;42.28;;;1.30;99.90;;;;;;5075322;28;20017;-72
2021/01/09 08:52:26;;;;;;;106.85;40.13;;;1.40;99.90;;;;;;5074153;28;20064;-72
2021/01/09 08:54:54;;;;;;;88.88;33.75;;;1.40;99.90;;;;;;5075207;28;20052;-72
2021/01/09 08:57:20;;;;;;;87.70;34.67;;;1.50;99.90;;;;;;5075226;28;20365;-72
2021/01/09 08:59:46;;;;;;;93.40;36.05;;;1.50;99.90;;;;;;5073783;28;20028;-72
2021/01/09 09:02:17;;;;;;;86.30;33.75;;;1.60;99.90;;;;;;5074613;28;20039;-72
2021/01/09 09:04:46;;;;;;;100.68;37.95;;;1.50;99.90;;;;;;5074379;28;20104;-72
2021/01/09 09:07:15;;;;;;;90.90;35.85;;;1.50;99.90;;;;;;5074381;28;20032;-72
2021/01/09 09:09:41;;;;;;;86.07;32.92;;;1.50;99.90;;;;;;5074921;28;20025;-72
2021/01/09 09:12:09;;;;;;;84.68;34.20;;;1.60;99.90;;;;;;5074242;28;20117;-72
2021/01/09 09:14:35;;;;;;;82.35;33.45;;;1.60;99.90;;;;;;5075762;28;20024;-72
2021/01/09 09:17:03;;;;;;;84.47;33.75;;;1.70;99.90;;;;;;5074509;28;20107;-72
2021/01/09 09:19:35;;;;;;;79.32;32.65;;;1.70;99.90;;;;;;5084808;28;20035;-72
2021/01/09 09:22:01;;;;;;;95.75;36.65;;;1.70;99.90;;;;;;5094516;28;20167;-72
2021/01/09 09:24:44;;;;;;;94.25;36.03;;;1.70;99.90;;;;;;5094844;28;20031;-72
2021/01/09 09:27:31;;;;;;;103.60;37.90;;;1.70;99.90;;;;;;5094280;28;20541;-72
2021/01/09 09:30:14;;;;;;;107.25;36.83;;;1.70;99.90;;;;;;5094487;28;20055;-72
2021/01/09 09:32:45;;;;;;;105.80;37.10;;;1.70;99.90;;;;;;5094629;28;20032;-72
2021/01/09 09:35:20;;;;;;;116.13;41.05;;;1.70;99.90;;;;;;5094376;28;20052;-72
2021/01/09 09:37:46;;;;;;;112.20;37.53;;;1.70;99.90;;;;;;5075495;28;20012;-72
2021/01/09 09:40:22;;;;;;;103.22;35.95;;;1.70;99.90;;;;;;5074060;28;20378;-72
2021/01/09 09:42:47;;;;;;;92.82;34.38;;;1.70;99.90;;;;;;5074329;28;20039;-72
2021/01/09 09:45:13;;;;;;;82.63;31.90;;;1.80;99.90;;;;;;5073967;28;20028;-72
2021/01/09 09:47:45;;;;;;;89.05;30.58;;;1.80;99.90;;;;;;5074181;28;20115;-72
2021/01/09 09:50:12;;;;;;;89.28;33.95;;;1.60;99.90;;;;;;5072660;28;20469;-72
2021/01/09 09:52:38;;;;;;;94.07;34.88;;;1.70;99.90;;;;;;5073558;28;20025;-72
2021/01/09 09:55:05;;;;;;;84.22;31.08;;;1.80;99.90;;;;;;5073408;28;20028;-72
2021/01/09 09:57:31;;;;;;;81.03;31.67;;;2.00;99.90;;;;;;5074088;28;20063;-72
2021/01/09 10:00:12;;;;;;;86.32;31.90;;;2.10;99.90;;;;;;5074125;28;20514;-72
2021/01/09 10:02:52;;;;;;;89.13;33.53;;;2.20;99.90;;;;;;5072330;28;20373;-72
2021/01/09 10:05:18;;;;;;;87.72;31.10;;;2.10;99.90;;;;;;5074008;28;20021;-72
2021/01/09 10:07:43;;;;;;;86.13;30.90;;;2.10;99.90;;;;;;5073625;28;20111;-72
2021/01/09 10:10:20;;;;;;;76.32;29.13;;;2.10;99.90;;;;;;5073679;28;20098;-72
2021/01/09 10:12:54;;;;;;;75.85;29.40;;;2.20;99.90;;;;;;5071932;28;20102;-71
2021/01/09 10:15:21;;;;;;;69.93;28.17;;;2.40;99.90;;;;;;5055616;28;20409;-72
2021/01/09 10:17:51;;;;;;;63.17;25.90;;;2.50;99.90;;;;;;5072179;28;20024;-71
2021/01/09 10:20:17;;;;;;;62.15;26.58;;;2.40;99.90;;;;;;5073824;28;20044;-71
2021/01/09 10:22:42;;;;;;;69.13;28.73;;;2.40;99.90;;;;;;5072284;28;20033;-72
2021/01/09 10:25:08;;;;;;;76.07;29.23;;;2.30;99.90;;;;;;5073821;28;20024;-71
2021/01/09 10:27:34;;;;;;;58.40;27.75;;;2.40;99.90;;;;;;5072946;28;20074;-72
2021/01/09 10:29:59;;;;;;;62.22;28.45;;;2.40;99.90;;;;;;5073806;28;20028;-72
2021/01/09 10:32:25;;;;;;;51.40;24.95;;;2.40;99.90;;;;;;5071930;28;20021;-71
2021/01/09 10:34:50;;;;;;;57.67;24.88;;;2.50;99.90;;;;;;5073673;28;20338;-72
2021/01/09 10:37:16;;;;;;;54.05;24.15;;;2.50;99.90;;;;;;5073740;28;20377;-71
2021/01/09 10:39:41;;;;;;;47.90;21.52;;;2.50;99.90;;;;;;5073708;28;20035;-72
2021/01/09 10:42:07;;;;;;;51.97;23.42;;;2.50;99.90;;;;;;5073737;28;20024;-71
2021/01/09 10:44:32;;;;;;;54.20;24.40;;;2.60;99.90;;;;;;5071893;28;20606;-71
2021/01/09 10:46:58;;;;;;;46.00;23.33;;;2.70;99.90;;;;;;5073667;28;20035;-72
2021/01/09 10:49:23;;;;;;;52.22;24.80;;;2.90;99.90;;;;;;5073629;28;20382;-71
2021/01/09 10:51:49;;;;;;;48.28;22.90;;;3.00;99.90;;;;;;5073580;28;20028;-71
2021/01/09 10:54:15;;;;;;;51.10;23.67;;;3.00;99.90;;;;;;5073060;28;20070;-71
2021/01/09 10:56:48;;;;;;;51.95;23.70;;;3.10;99.90;;;;;;5073408;28;20115;-71
2021/01/09 10:59:13;;;;;;;44.42;22.27;;;3.10;99.90;;;;;;5073653;28;20035;-71
2021/01/09 11:01:39;;;;;;;41.42;20.35;;;3.10;99.90;;;;;;5072987;28;20452;-71
2021/01/09 11:04:05;;;;;;;39.13;20.65;;;3.10;99.90;;;;;;5072124;28;20025;-71
2021/01/09 11:06:30;;;;;;;43.72;21.63;;;3.20;99.90;;;;;;5073145;28;20030;-71
2021/01/09 11:08:56;;;;;;;42.90;20.65;;;3.10;99.90;;;;;;5071987;28;20056;-71
2021/01/09 11:11:22;;;;;;;41.38;20.70;;;3.20;99.90;;;;;;5072882;28;20056;-71
2021/01/09 11:13:48;;;;;;;40.60;20.95;;;3.20;99.90;;;;;;5073316;28;20028;-71
2021/01/09 11:16:23;;;;;;;48.08;21.67;;;3.20;99.90;;;;;;5075833;28;20441;-71
2021/01/09 11:18:50;;;;;;;41.60;21.27;;;3.20;99.90;;;;;;5075764;28;20017;-71
2021/01/09 11:21:17;;;;;;;41.05;19.35;;;3.20;99.90;;;;;;5074978;28;20375;-71
2021/01/09 11:23:43;;;;;;;40.97;21.70;;;3.00;99.90;;;;;;5076435;28;20366;-71
2021/01/09 11:26:11;;;;;;;41.38;22.33;;;3.00;99.90;;;;;;5076278;28;20025;-71
2021/01/09 11:28:37;;;;;;;38.75;20.73;;;3.00;99.90;;;;;;5075654;28;20063;-71
2021/01/09 11:31:02;;;;;;;37.83;20.35;;;3.00;99.90;;;;;;5075663;28;20052;-71
2021/01/09 11:33:28;;;;;;;42.75;22.88;;;3.10;99.90;;;;;;5075489;28;20028;-71
2021/01/09 11:35:53;;;;;;;44.15;23.38;;;3.10;99.90;;;;;;5074280;28;20029;-71
2021/01/09 11:38:21;;;;;;;44.17;21.40;;;3.20;99.90;;;;;;5076102;28;20120;-71
2021/01/09 11:40:47;;;;;;;42.90;23.15;;;3.30;99.90;;;;;;5076434;28;20012;-71
2021/01/09 11:43:12;;;;;;;45.35;23.48;;;3.30;99.90;;;;;;5076584;28;20025;-71
2021/01/09 11:45:38;;;;;;;40.45;22.13;;;3.30;99.90;;;;;;5076566;28;20435;-71
2021/01/09 11:48:05;;;;;;;37.25;21.05;;;3.40;99.90;;;;;;5074918;28;20052;-71
2021/01/09 11:50:31;;;;;;;37.17;19.55;;;3.40;99.90;;;;;;5076451;28;20021;-71
2021/01/09 11:52:56;;;;;;;34.88;19.88;;;3.50;99.90;;;;;;5076325;28;20035;-71
2021/01/09 11:55:22;;;;;;;29.83;17.50;;;3.60;99.90;;;;;;5076246;28;20056;-71
2021/01/09 11:57:47;;;;;;;30.17;16.92;;;3.60;99.90;;;;;;5076284;28;20063;-71
2021/01/09 12:00:13;;;;;;;37.53;19.65;;;3.70;99.90;;;;;;5076351;28;20024;-71
2021/01/09 12:02:39;;;;;;;33.65;17.55;;;3.60;99.90;;;;;;5076289;28;20024;-71
2021/01/09 12:05:06;;;;;;;33.60;19.45;;;3.60;99.90;;;;;;5076205;28;20058;-71
2021/01/09 12:07:32;;;;;;;39.33;20.73;;;3.50;99.90;;;;;;5074389;28;20028;-71
2021/01/09 12:09:57;;;;;;;41.15;20.65;;;3.60;99.90;;;;;;5076137;28;20029;-71
2021/01/09 12:12:23;;;;;;;42.45;20.45;;;3.60;99.90;;;;;;5075318;28;20041;-71
2021/01/09 12:14:48;;;;;;;43.40;20.38;;;3.60;99.90;;;;;;5076080;28;20040;-71
2021/01/09 12:17:14;;;;;;;38.10;19.13;;;3.60;99.90;;;;;;5074139;28;20070;-71
2021/01/09 12:19:39;;;;;;;37.47;19.27;;;3.70;99.90;;;;;;5075716;28;20024;-71
2021/01/09 12:22:05;;;;;;;40.88;19.58;;;3.70;99.90;;;;;;5075555;28;20102;-71
2021/01/09 12:24:30;;;;;;;42.47;22.02;;;3.60;99.90;;;;;;5075846;28;20461;-71
2021/01/09 12:26:56;;;;;;;50.88;23.90;;;3.60;99.90;;;;;;5073927;28;20043;-71
2021/01/09 12:29:22;;;;;;;55.90;25.90;;;3.60;99.90;;;;;;5075773;28;20112;-71
2021/01/09 12:31:48;;;;;;;59.30;28.00;;;3.60;99.90;;;;;;5075628;28;20401;-71
2021/01/09 12:34:15;;;;;;;59.33;26.00;;;3.60;99.90;;;;;;5075643;28;20091;-71
2021/01/09 12:36:41;;;;;;;60.53;27.20;;;3.60;99.90;;;;;;5074164;28;20078;-71